createdAt,value
2018-12-01T00:00:40.057Z,71.97
2018-12-01T00:03:09.080Z,71.87
2018-12-01T00:05:38.242Z,72.20
2018-12-01T00:08:07.499Z,71.49
2018-12-01T00:10:36.637Z,70.94
2018-12-01T00:13:05.810Z,71.27
2018-12-01T00:15:34.983Z,70.95
2018-12-01T00:18:04.105Z,71.62
2018-12-01T00:20:35.089Z,71.62
2018-12-01T00:23:04.100Z,72.70
2018-12-01T00:25:33.212Z,73.08
2018-12-01T00:28:02.292Z,73.04
2018-12-01T00:30:31.261Z,73.21
2018-12-01T00:33:00.256Z,73.34
2018-12-01T00:35:29.349Z,73.07
2018-12-01T00:37:58.410Z,73.23
2018-12-01T00:40:27.525Z,73.13
2018-12-01T00:42:56.774Z,73.42
2018-12-01T00:45:25.882Z,73.04
2018-12-01T00:47:55.074Z,72.35
2018-12-01T00:50:24.726Z,72.56
2018-12-01T00:52:54.466Z,72.71
2018-12-01T00:55:23.485Z,72.45
2018-12-01T00:57:52.390Z,73.31
2018-12-01T01:00:23.116Z,73.45
2018-12-01T01:02:56.565Z,74.52
2018-12-01T01:05:26.456Z,74.92
2018-12-01T01:07:55.976Z,74.49
2018-12-01T01:10:28.277Z,74.85
2018-12-01T01:12:57.152Z,73.15
2018-12-01T01:15:26.018Z,74.33
2018-12-01T01:17:54.935Z,74.83
2018-12-01T01:20:24.597Z,75.29
2018-12-01T01:22:53.646Z,75.61
2018-12-01T01:25:22.514Z,76.48
2018-12-01T01:27:51.433Z,75.73
2018-12-01T01:30:22.661Z,75.60
2018-12-01T01:33:24.369Z,76.14
2018-12-01T01:35:53.273Z,76.26
2018-12-01T01:38:22.234Z,78.22
2018-12-01T01:40:56.375Z,80.11
2018-12-01T01:43:25.221Z,80.16
2018-12-01T01:45:54.163Z,80.71
2018-12-01T01:48:23.119Z,80.97
2018-12-01T01:50:51.965Z,81.02
2018-12-01T01:53:20.865Z,80.52
2018-12-01T01:55:49.740Z,79.49
2018-12-01T01:58:18.675Z,79.63
2018-12-01T02:00:47.586Z,79.76
2018-12-01T02:03:16.511Z,80.50
2018-12-01T02:05:45.464Z,79.85
2018-12-01T02:08:14.634Z,79.77
2018-12-01T02:10:43.505Z,79.56
2018-12-01T02:13:12.409Z,80.13
2018-12-01T02:15:41.293Z,80.89
2018-12-01T02:18:10.129Z,80.88
2018-12-01T02:20:38.989Z,79.81
2018-12-01T02:23:07.971Z,79.00
2018-12-01T02:25:36.873Z,79.26
2018-12-01T02:28:06.102Z,79.51
2018-12-01T02:30:34.959Z,79.95
2018-12-01T02:33:03.833Z,78.54
2018-12-01T02:35:32.845Z,78.93
2018-12-01T02:38:01.826Z,79.14
2018-12-01T02:40:31.113Z,80.20
2018-12-01T02:42:59.953Z,81.15
2018-12-01T02:45:39.726Z,81.56
2018-12-01T02:48:08.693Z,82.86
2018-12-01T02:50:37.643Z,82.92
2018-12-01T02:53:06.588Z,84.48
2018-12-01T02:55:35.448Z,85.00
2018-12-01T02:58:04.420Z,84.88
2018-12-01T03:00:33.270Z,84.80
2018-12-01T03:03:02.174Z,84.59
2018-12-01T03:05:31.167Z,85.18
2018-12-01T03:08:00.085Z,84.60
2018-12-01T03:10:29.082Z,83.64
2018-12-01T03:12:58.073Z,83.19
2018-12-01T03:15:26.972Z,84.21
2018-12-01T03:17:55.873Z,83.35
2018-12-01T03:20:24.845Z,82.03
2018-12-01T03:22:53.874Z,81.76
2018-12-01T03:25:23.644Z,81.80
2018-12-01T03:27:53.469Z,82.15
2018-12-01T03:30:26.162Z,82.05
2018-12-01T03:32:55.766Z,81.98
2018-12-01T03:35:25.413Z,81.66
2018-12-01T03:37:54.353Z,82.10
2018-12-01T03:40:23.629Z,82.51
2018-12-01T03:42:53.686Z,82.55
2018-12-01T03:45:23.577Z,81.21
2018-12-01T03:47:52.590Z,81.44
2018-12-01T03:50:23.501Z,81.05
2018-12-01T03:52:56.550Z,81.22
2018-12-01T03:55:33.451Z,82.09
2018-12-01T03:58:02.888Z,81.89
2018-12-01T04:00:33.477Z,81.39
2018-12-01T04:03:03.174Z,81.44
2018-12-01T04:05:32.251Z,81.44
2018-12-01T04:08:01.159Z,81.70
2018-12-01T04:10:30.225Z,81.19
2018-12-01T04:12:59.089Z,81.02
2018-12-01T04:15:28.118Z,81.58
2018-12-01T04:17:57.034Z,81.72
2018-12-01T04:20:25.937Z,81.46
2018-12-01T04:22:54.997Z,81.84
2018-12-01T04:25:24.058Z,81.97
2018-12-01T04:27:53.693Z,81.36
2018-12-01T04:30:23.691Z,82.01
2018-12-01T04:32:52.622Z,81.65
2018-12-01T04:35:22.465Z,81.75
2018-12-01T04:37:53.239Z,81.24
2018-12-01T04:40:22.185Z,81.26
2018-12-01T04:42:51.100Z,80.98
2018-12-01T04:45:20.144Z,80.82
2018-12-01T04:47:50.442Z,80.74
2018-12-01T04:50:19.661Z,79.54
2018-12-01T04:52:49.361Z,79.93
2018-12-01T04:55:20.021Z,79.45
2018-12-01T04:57:48.894Z,79.61
2018-12-01T05:00:19.803Z,80.19
2018-12-01T05:02:48.845Z,79.68
2018-12-01T05:05:20.832Z,80.21
2018-12-01T05:07:49.848Z,80.14
2018-12-01T05:10:19.765Z,79.46
2018-12-01T05:12:48.717Z,79.37
2018-12-01T05:15:19.211Z,78.39
2018-12-01T05:17:48.371Z,78.63
2018-12-01T05:20:23.654Z,78.61
2018-12-01T05:22:53.405Z,78.98
2018-12-01T05:25:22.349Z,78.36
2018-12-01T05:27:51.259Z,78.75
2018-12-01T05:30:20.190Z,79.62
2018-12-01T05:32:49.074Z,78.64
2018-12-01T05:35:20.243Z,78.38
2018-12-01T05:37:49.277Z,78.31
2018-12-01T05:40:18.144Z,78.72
2018-12-01T05:42:46.997Z,78.88
2018-12-01T05:45:21.640Z,78.79
2018-12-01T05:47:50.917Z,78.71
2018-12-01T05:50:25.457Z,79.33
2018-12-01T05:52:56.320Z,78.86
2018-12-01T05:55:25.372Z,78.45
2018-12-01T05:57:54.416Z,78.21
2018-12-01T06:00:23.311Z,78.06
2018-12-01T06:02:52.215Z,78.12
2018-12-01T06:05:21.151Z,77.98
2018-12-01T06:07:49.994Z,77.29
2018-12-01T06:10:23.282Z,77.35
2018-12-01T06:12:53.191Z,77.15
2018-12-01T06:15:22.509Z,76.11
2018-12-01T06:17:51.354Z,75.11
2018-12-01T06:20:23.526Z,74.15
2018-12-01T06:22:52.364Z,73.05
2018-12-01T06:25:22.572Z,73.91
2018-12-01T06:27:51.520Z,74.05
2018-12-01T06:30:21.027Z,73.07
2018-12-01T06:32:50.867Z,71.76
2018-12-01T06:35:19.793Z,71.22
2018-12-01T06:37:48.642Z,71.23
2018-12-01T06:40:20.388Z,70.56
2018-12-01T06:42:49.534Z,70.45
2018-12-01T06:45:18.723Z,69.65
2018-12-01T06:47:47.643Z,69.56
2018-12-01T06:50:17.772Z,70.19
2018-12-01T06:52:46.672Z,71.80
2018-12-01T06:55:16.121Z,72.23
2018-12-01T06:57:46.047Z,70.78
2018-12-01T07:00:18.968Z,71.25
2018-12-01T07:02:48.424Z,70.80
2018-12-01T07:05:17.878Z,71.79
2018-12-01T07:07:46.802Z,72.75
2018-12-01T07:10:19.761Z,72.10
2018-12-01T07:12:59.658Z,72.31
2018-12-01T07:15:34.906Z,70.66
2018-12-01T07:18:13.389Z,70.30
2018-12-01T07:20:42.252Z,69.81
2018-12-01T07:23:11.089Z,70.64
2018-12-01T07:25:39.914Z,69.66
2018-12-01T07:28:08.736Z,69.11
2018-12-01T07:30:37.964Z,68.42
2018-12-01T07:33:06.950Z,66.90
2018-12-01T07:35:35.769Z,68.00
2018-12-01T07:38:06.277Z,64.42
2018-12-01T07:40:35.109Z,65.92
2018-12-01T07:43:04.092Z,64.93
2018-12-01T07:45:32.977Z,64.36
2018-12-01T07:48:01.821Z,66.62
2018-12-01T07:50:30.706Z,66.67
2018-12-01T07:52:59.621Z,66.74
2018-12-01T07:55:28.501Z,65.89
2018-12-01T07:57:57.397Z,65.60
2018-12-01T08:00:26.272Z,65.89
2018-12-01T08:02:55.096Z,65.30
2018-12-01T08:05:23.958Z,66.44
2018-12-01T08:07:52.837Z,67.15
2018-12-01T08:10:21.644Z,66.86
2018-12-01T08:12:50.801Z,64.28
2018-12-01T08:15:19.696Z,66.13
2018-12-01T08:17:48.557Z,66.38
2018-12-01T08:20:17.900Z,66.53
2018-12-01T08:22:46.787Z,65.38
2018-12-01T08:25:16.689Z,65.44
2018-12-01T08:27:47.698Z,63.77
2018-12-01T08:30:23.654Z,62.49
2018-12-01T08:32:52.665Z,63.46
2018-12-01T08:35:21.589Z,62.54
2018-12-01T08:37:50.442Z,63.19
2018-12-01T08:40:20.524Z,62.33
2018-12-01T08:42:49.368Z,61.71
2018-12-01T08:45:18.370Z,61.36
2018-12-01T08:47:47.224Z,61.12
2018-12-01T08:50:18.029Z,59.52
2018-12-01T08:52:46.942Z,58.91
2018-12-01T08:55:22.549Z,59.00
2018-12-01T08:57:51.952Z,58.13
2018-12-01T09:00:24.752Z,56.83
2018-12-01T09:02:59.549Z,57.32
2018-12-01T09:05:28.399Z,55.16
2018-12-01T09:07:57.241Z,54.87
2018-12-01T09:10:26.207Z,55.38
2018-12-01T09:12:55.041Z,55.15
2018-12-01T09:15:23.874Z,55.10
2018-12-01T09:17:52.741Z,53.02
2018-12-01T09:20:21.564Z,53.42
2018-12-01T09:22:50.394Z,53.57
2018-12-01T09:25:19.731Z,52.88
2018-12-01T09:27:48.613Z,52.30
2018-12-01T09:30:23.409Z,52.90
2018-12-01T09:32:52.266Z,50.86
2018-12-01T09:35:21.130Z,50.80
2018-12-01T09:37:50.064Z,50.67
2018-12-01T09:40:20.058Z,49.00
2018-12-01T09:42:49.405Z,49.26
2018-12-01T09:45:19.493Z,48.76
2018-12-01T09:47:51.488Z,48.16
2018-12-01T09:50:20.306Z,47.72
2018-12-01T09:52:53.782Z,48.47
2018-12-01T09:55:24.589Z,47.83
2018-12-01T09:57:53.452Z,47.67
2018-12-01T10:00:25.957Z,46.84
2018-12-01T10:02:54.836Z,46.17
2018-12-01T10:05:23.735Z,45.17
2018-12-01T10:07:53.907Z,45.49
2018-12-01T10:10:23.604Z,44.19
2018-12-01T10:12:54.759Z,46.69
2018-12-01T10:15:27.017Z,46.70
2018-12-01T10:17:55.975Z,48.75
2018-12-01T10:20:29.069Z,49.46
2018-12-01T10:22:58.295Z,50.00
2018-12-01T10:25:27.164Z,49.53
2018-12-01T10:27:56.088Z,50.12
2018-12-01T10:30:24.985Z,50.77
2018-12-01T10:32:54.129Z,52.02
2018-12-01T10:35:24.969Z,52.39
2018-12-01T10:37:58.167Z,52.50
2018-12-01T10:40:27.001Z,52.23
2018-12-01T10:42:55.873Z,51.76
2018-12-01T10:45:26.968Z,51.01
2018-12-01T10:47:55.882Z,51.89
2018-12-01T10:50:25.148Z,53.29
2018-12-01T10:52:55.628Z,52.34
2018-12-01T10:55:31.493Z,51.40
2018-12-01T10:58:13.534Z,51.47
2018-12-01T11:00:48.607Z,51.43
2018-12-01T11:03:22.625Z,49.86
2018-12-01T11:05:51.824Z,48.95
2018-12-01T11:08:20.727Z,46.02
2018-12-01T11:10:55.090Z,45.35
2018-12-01T11:13:18.589Z,45.00
2018-12-01T11:15:47.428Z,46.00
2018-12-01T11:18:16.307Z,45.88
2018-12-01T11:20:45.165Z,45.65
2018-12-01T11:23:14.008Z,44.53
2018-12-01T11:25:42.903Z,44.51
2018-12-01T11:28:11.733Z,42.59
2018-12-01T11:30:42.320Z,43.17
2018-12-01T11:33:11.188Z,43.44
2018-12-01T11:35:40.198Z,42.57
2018-12-01T11:38:09.361Z,43.26
2018-12-01T11:40:38.241Z,43.64
2018-12-01T11:43:08.677Z,44.94
2018-12-01T11:45:37.566Z,44.71
2018-12-01T11:48:07.078Z,43.57
2018-12-01T11:50:40.151Z,43.66
2018-12-01T11:53:09.010Z,43.00
2018-12-01T11:55:37.842Z,43.74
2018-12-01T11:58:07.978Z,43.79
2018-12-01T12:00:37.329Z,44.85
2018-12-01T12:03:06.575Z,44.64
2018-12-01T12:05:35.529Z,43.63
2018-12-01T12:08:25.572Z,43.72
2018-12-01T12:10:55.035Z,44.55
2018-12-01T12:13:25.281Z,44.20
2018-12-01T12:15:54.120Z,44.90
2018-12-01T12:18:24.386Z,44.77
2018-12-01T12:20:53.257Z,45.29
2018-12-01T12:23:22.099Z,45.26
2018-12-01T12:25:50.973Z,44.33
2018-12-01T12:28:19.817Z,44.33
2018-12-01T12:30:48.683Z,44.97
2018-12-01T12:33:17.584Z,45.01
2018-12-01T12:35:46.457Z,44.74
2018-12-01T12:38:15.353Z,44.81
2018-12-01T12:40:50.828Z,45.60
2018-12-01T12:43:27.348Z,46.23
2018-12-01T12:45:56.221Z,46.80
2018-12-01T12:48:25.041Z,46.52
2018-12-01T12:50:53.889Z,47.04
2018-12-01T12:53:22.765Z,47.40
2018-12-01T12:55:51.601Z,47.39
2018-12-01T12:58:20.435Z,46.99
2018-12-01T13:00:49.370Z,47.58
2018-12-01T13:03:18.210Z,47.87
2018-12-01T13:05:48.521Z,47.59
2018-12-01T13:08:20.461Z,48.16
2018-12-01T13:10:49.337Z,48.14
2018-12-01T13:13:18.279Z,48.25
2018-12-01T13:15:47.156Z,48.30
2018-12-01T13:18:16.057Z,48.15
2018-12-01T13:20:46.231Z,48.28
2018-12-01T13:23:15.127Z,49.18
2018-12-01T13:25:44.269Z,48.68
2018-12-01T13:28:17.745Z,49.14
2018-12-01T13:30:50.521Z,50.59
2018-12-01T13:33:19.442Z,49.02
2018-12-01T13:35:48.361Z,48.51
2018-12-01T13:38:17.485Z,50.19
2018-12-01T13:40:46.373Z,49.70
2018-12-01T13:43:15.283Z,50.00
2018-12-01T13:45:44.326Z,49.40
2018-12-01T13:48:13.192Z,51.12
2018-12-01T13:50:42.104Z,50.45
2018-12-01T13:53:12.446Z,50.10
2018-12-01T13:55:41.329Z,50.89
2018-12-01T13:58:11.053Z,51.00
2018-12-01T14:00:40.345Z,50.74
2018-12-01T14:03:10.148Z,51.16
2018-12-01T14:05:39.862Z,51.76
2018-12-01T14:08:08.745Z,50.22
2018-12-01T14:10:42.641Z,51.27
2018-12-01T14:13:13.001Z,49.27
2018-12-01T14:15:41.897Z,49.59
2018-12-01T14:18:10.897Z,49.34
2018-12-01T14:20:39.778Z,49.16
2018-12-01T14:23:08.685Z,48.94
2018-12-01T14:25:37.533Z,50.24
2018-12-01T14:28:09.898Z,50.70
2018-12-01T14:30:38.765Z,51.81
2018-12-01T14:33:08.495Z,52.03
2018-12-01T14:35:38.337Z,52.72
2018-12-01T14:38:11.484Z,53.63
2018-12-01T14:40:41.525Z,54.54
2018-12-01T14:43:13.387Z,53.80
2018-12-01T14:45:43.300Z,54.39
2018-12-01T14:48:12.137Z,54.94
2018-12-01T14:50:40.997Z,55.84
2018-12-01T14:53:11.396Z,55.84
2018-12-01T14:55:40.398Z,55.99
2018-12-01T14:58:09.312Z,56.38
2018-12-01T15:00:38.512Z,56.85
2018-12-01T15:03:08.261Z,57.42
2018-12-01T15:05:37.565Z,57.64
2018-12-01T15:08:07.345Z,57.84
2018-12-01T15:10:36.246Z,58.83
2018-12-01T15:13:05.279Z,58.28
2018-12-01T15:15:34.144Z,58.44
2018-12-01T15:18:03.065Z,58.49
2018-12-01T15:20:31.889Z,58.73
2018-12-01T15:23:00.837Z,58.25
2018-12-01T15:25:33.890Z,59.20
2018-12-01T15:28:02.785Z,59.25
2018-12-01T15:30:31.645Z,59.91
2018-12-01T15:33:16.505Z,60.37
2018-12-01T15:35:46.420Z,60.51
2018-12-01T15:38:15.500Z,60.42
2018-12-01T15:40:45.964Z,60.29
2018-12-01T15:43:14.799Z,60.72
2018-12-01T15:45:43.706Z,60.95
2018-12-01T15:48:13.790Z,60.75
2018-12-01T15:50:42.812Z,60.68
2018-12-01T15:53:14.861Z,60.63
2018-12-01T15:55:43.778Z,61.23
2018-12-01T15:58:12.649Z,62.00
2018-12-01T16:00:42.527Z,62.13
2018-12-01T16:03:11.452Z,61.74
2018-12-01T16:05:40.374Z,61.83
2018-12-01T16:08:10.309Z,61.97
2018-12-01T16:10:39.204Z,62.04
2018-12-01T16:13:13.850Z,61.63
2018-12-01T16:15:45.747Z,62.06
2018-12-01T16:18:14.625Z,62.00
2018-12-01T16:20:43.590Z,62.04
2018-12-01T16:23:12.509Z,62.45
2018-12-01T16:25:42.875Z,62.30
2018-12-01T16:28:11.851Z,63.37
2018-12-01T16:30:42.470Z,62.77
2018-12-01T16:33:15.849Z,63.44
2018-12-01T16:35:45.892Z,62.48
2018-12-01T16:38:16.482Z,63.22
2018-12-01T16:40:49.517Z,62.65
2018-12-01T16:43:18.541Z,63.25
2018-12-01T16:45:48.573Z,63.47
2018-12-01T16:48:19.109Z,63.13
2018-12-01T16:50:47.972Z,63.58
2018-12-01T16:53:18.137Z,64.18
2018-12-01T16:55:47.164Z,63.92
2018-12-01T16:58:16.090Z,64.81
2018-12-01T17:00:45.012Z,65.69
2018-12-01T17:03:14.644Z,65.46
2018-12-01T17:05:46.869Z,66.35
2018-12-01T17:08:15.848Z,66.24
2018-12-01T17:10:44.819Z,66.18
2018-12-01T17:13:13.706Z,66.30
2018-12-01T17:15:42.581Z,66.94
2018-12-01T17:18:11.413Z,66.25
2018-12-01T17:20:40.256Z,66.85
2018-12-01T17:23:13.983Z,67.75
2018-12-01T17:25:42.871Z,67.78
2018-12-01T17:28:17.953Z,69.26
2018-12-01T17:30:46.904Z,69.42
2018-12-01T17:33:15.843Z,70.33
2018-12-01T17:35:44.890Z,71.02
2018-12-01T17:38:16.389Z,70.73
2018-12-01T17:41:20.177Z,71.13
2018-12-01T17:43:54.930Z,71.68
2018-12-01T17:46:23.772Z,71.85
2018-12-01T17:48:52.704Z,71.02
2018-12-01T17:51:21.644Z,70.40
2018-12-01T17:53:52.727Z,68.68
2018-12-01T17:56:21.583Z,68.61
2018-12-01T17:58:51.961Z,67.25
2018-12-01T18:01:20.833Z,66.69
2018-12-01T18:03:49.729Z,67.83
2018-12-01T18:06:19.861Z,67.59
2018-12-01T18:08:48.716Z,67.32
2018-12-01T18:11:17.725Z,66.00
2018-12-01T18:13:46.721Z,65.10
2018-12-01T18:16:15.585Z,65.14
2018-12-01T18:18:44.410Z,64.86
2018-12-01T18:21:13.383Z,65.95
2018-12-01T18:23:42.248Z,66.14
2018-12-01T18:26:11.147Z,66.54
2018-12-01T18:28:43.187Z,66.67
2018-12-01T18:31:13.969Z,66.81
2018-12-01T18:33:44.321Z,66.44
2018-12-01T18:36:14.451Z,66.40
2018-12-01T18:38:45.103Z,66.54
2018-12-01T18:41:14.037Z,66.64
2018-12-01T18:43:42.926Z,66.53
2018-12-01T18:46:14.011Z,65.86
2018-12-01T18:48:43.302Z,65.44
2018-12-01T18:51:12.201Z,65.32
2018-12-01T18:53:41.077Z,65.63
2018-12-01T18:56:10.046Z,66.02
2018-12-01T18:58:38.962Z,65.86
2018-12-01T19:01:09.307Z,66.37
2018-12-01T19:03:38.678Z,66.38
2018-12-01T19:06:08.365Z,67.67
2018-12-01T19:08:37.231Z,67.11
2018-12-01T19:11:07.157Z,66.74
2018-12-01T19:13:36.322Z,66.96
2018-12-01T19:16:05.377Z,67.72
2018-12-01T19:18:34.357Z,67.37
2018-12-01T19:21:03.189Z,67.52
2018-12-01T19:23:32.140Z,67.77
2018-12-01T19:26:01.044Z,68.35
2018-12-01T19:28:29.905Z,69.79
2018-12-01T19:31:00.024Z,69.40
2018-12-01T19:33:28.888Z,69.54
2018-12-01T19:35:57.797Z,69.60
2018-12-01T19:38:32.043Z,70.17
2018-12-01T19:41:01.787Z,71.87
2018-12-01T19:43:33.498Z,71.76
2018-12-01T19:46:02.410Z,73.12
2018-12-01T19:48:31.270Z,73.35
2018-12-01T19:51:00.169Z,73.99
2018-12-01T19:53:29.064Z,74.43
2018-12-01T19:55:57.894Z,73.32
2018-12-01T19:58:29.137Z,71.40
2018-12-01T20:00:58.822Z,71.31
2018-12-01T20:03:31.393Z,70.03
2018-12-01T20:06:00.241Z,70.56
2018-12-01T20:08:29.089Z,70.60
2018-12-01T20:11:03.824Z,70.85
2018-12-01T20:13:49.144Z,71.44
2018-12-01T20:16:27.625Z,70.09
2018-12-01T20:18:57.429Z,69.67
2018-12-01T20:21:26.295Z,69.93
2018-12-01T20:23:56.539Z,69.85
2018-12-01T20:26:25.356Z,70.79
2018-12-01T20:28:54.210Z,71.45
2018-12-01T20:31:23.101Z,71.77
2018-12-01T20:33:53.449Z,71.84
2018-12-01T20:36:29.684Z,72.02
2018-12-01T20:39:32.081Z,72.60
2018-12-01T20:42:01.029Z,72.89
2018-12-01T20:44:32.740Z,73.40
2018-12-01T20:47:01.714Z,72.76
2018-12-01T20:49:32.005Z,72.86
2018-12-01T20:52:00.987Z,72.54
2018-12-01T20:54:37.153Z,72.78
2018-12-01T20:57:13.428Z,72.88
2018-12-01T20:59:42.260Z,72.88
2018-12-01T21:02:11.093Z,72.64
2018-12-01T21:04:40.011Z,72.86
2018-12-01T21:07:10.268Z,73.15
2018-12-01T21:09:39.101Z,73.04
2018-12-01T21:12:11.073Z,72.51
2018-12-01T21:14:39.921Z,72.50
2018-12-01T21:17:08.803Z,72.51
2018-12-01T21:19:37.665Z,72.41
2018-12-01T21:22:07.671Z,72.87
2018-12-01T21:24:36.501Z,72.55
2018-12-01T21:27:05.476Z,72.92
2018-12-01T21:29:35.582Z,74.24
2018-12-01T21:32:04.786Z,74.34
2018-12-01T21:34:33.688Z,74.53
2018-12-01T21:37:02.533Z,74.73
2018-12-01T21:39:31.493Z,74.95
2018-12-01T21:42:00.335Z,75.07
2018-12-01T21:44:29.198Z,74.38
2018-12-01T21:46:58.084Z,75.47
2018-12-01T21:49:26.934Z,75.92
2018-12-01T21:51:56.177Z,75.56
2018-12-01T21:54:25.010Z,75.53
2018-12-01T21:56:53.840Z,74.63
2018-12-01T21:59:22.725Z,74.48
2018-12-01T22:01:51.549Z,74.19
2018-12-01T22:04:20.406Z,74.67
2018-12-01T22:06:49.289Z,74.78
2018-12-01T22:09:18.125Z,74.57
2018-12-01T22:11:47.010Z,75.14
2018-12-01T22:14:15.952Z,74.49
2018-12-01T22:16:44.853Z,74.07
2018-12-01T22:19:13.690Z,75.31
2018-12-01T22:21:42.570Z,75.81
2018-12-01T22:24:11.389Z,76.15
2018-12-01T22:26:40.214Z,75.91
2018-12-01T22:29:09.085Z,76.16
2018-12-01T22:31:38.051Z,76.24
2018-12-01T22:34:07.089Z,76.09
2018-12-01T22:36:35.986Z,75.92
2018-12-01T22:39:06.347Z,75.74
2018-12-01T22:41:35.229Z,75.37
2018-12-01T22:44:04.119Z,75.78
2018-12-01T22:46:33.050Z,75.79
2018-12-01T22:49:01.941Z,75.46
2018-12-01T22:51:30.773Z,75.12
2018-12-01T22:53:59.597Z,75.75
2018-12-01T22:56:28.966Z,75.04
2018-12-01T22:58:57.497Z,75.28
2018-12-01T23:01:26.342Z,75.90
2018-12-01T23:03:55.218Z,75.33
2018-12-01T23:06:24.071Z,75.34
2018-12-01T23:08:52.949Z,75.27
2018-12-01T23:11:21.867Z,76.19
2018-12-01T23:13:50.779Z,76.18
2018-12-01T23:16:19.645Z,75.98
2018-12-01T23:18:48.584Z,75.67
2018-12-01T23:21:20.645Z,75.91
2018-12-01T23:23:46.345Z,76.67
2018-12-01T23:26:15.265Z,75.97
2018-12-01T23:28:44.089Z,76.37
2018-12-01T23:31:12.938Z,76.53
2018-12-01T23:33:41.839Z,76.00
2018-12-01T23:36:10.678Z,75.87
2018-12-01T23:38:39.585Z,76.32
2018-12-01T23:41:08.465Z,76.09
2018-12-01T23:43:37.303Z,76.08
2018-12-01T23:46:06.811Z,75.72
2018-12-01T23:48:35.690Z,75.96
2018-12-01T23:51:04.568Z,75.67
2018-12-01T23:53:33.478Z,75.98
2018-12-01T23:56:02.348Z,76.26
2018-12-01T23:58:31.177Z,76.16
